This is the latest recevied weather packets stored in our database for station/object DC4XK-10. If no packets are shown the sender has not sent any weather packets the latest 10 day(s).
| Time | Temp. | Humidity | Pressure | Rain* | Wind** | Luminosity | Snow |
|---|---|---|---|---|---|---|---|
| 1777711131 | 20.56° C | 50% | 1017.1 hPa | 0 mm | 1.79 m/s, 216° | - | - |
| 1777710531 | 20.56° C | 52% | 1017.2 hPa | 0 mm | 0.45 m/s, 234° | - | - |
| 1777709931 | 19.44° C | 53% | 1017.3 hPa | 0 mm | 0.89 m/s, 255° | - | - |
| 1777709331 | 18.89° C | 54% | 1017.4 hPa | 0 mm | 1.34 m/s, 231° | - | - |
| 1777708731 | 18.33° C | 57% | 1017.6 hPa | 0 mm | 0 m/s | - | - |
| 1777708132 | 18.33° C | 58% | 1017.3 hPa | 0 mm | 0 m/s | - | - |
| 1777707531 | 17.78° C | 59% | 1017.6 hPa | 0 mm | 0.89 m/s, 183° | - | - |
| 1777706931 | 17.22° C | 60% | 1017.8 hPa | 0 mm | 2.24 m/s, 207° | - | - |
| 1777706333 | 16.67° C | 62% | 1017.7 hPa | 0 mm | 0.45 m/s, 204° | - | - |
| 1777705731 | 16.67° C | 62% | 1017.8 hPa | 0 mm | 2.68 m/s, 119° | - | - |
| 1777705131 | 16.11° C | 63% | 1018.1 hPa | 0 mm | 0 m/s | - | - |
| 1777704532 | 15.56° C | 65% | 1018 hPa | 0 mm | 1.34 m/s, 182° | - | - |
| 1777703931 | 15.56° C | 66% | 1018 hPa | 0 mm | 0.45 m/s, 141° | - | - |
| 1777703331 | 14.44° C | 71% | 1018.1 hPa | 0 mm | 0 m/s | - | - |
| 1777702730 | 13.89° C | 71% | 1018.3 hPa | 0 mm | 0 m/s | - | - |
| 1777702131 | 13.89° C | 70% | 1018.4 hPa | 0 mm | 0 m/s | - | - |
| 1777701531 | 13.33° C | 71% | 1018.1 hPa | 0 mm | 0.89 m/s, 166° | - | - |
| 1777700931 | 12.78° C | 72% | 1018.1 hPa | 0 mm | 0 m/s | - | - |
| 1777700331 | 12.22° C | 74% | 1018.4 hPa | 0 mm | 0 m/s | - | - |
| 1777699731 | 12.22° C | 74% | 1018.3 hPa | 0 mm | 0 m/s | - | - |
| 1777699131 | 11.67° C | 76% | 1018.4 hPa | 0 mm | 0 m/s | - | - |
| 1777698530 | 11.11° C | 77% | 1018.2 hPa | 0 mm | 0 m/s | - | - |
| 1777697931 | 10.56° C | 78% | 1018.3 hPa | 0 mm | 0 m/s | - | - |
| 1777697331 | 10.56° C | 77% | 1018.4 hPa | 0 mm | 0 m/s | - | - |
| 1777696731 | 10.56° C | 78% | 1018.4 hPa | 0 mm | 0 m/s | - | - |
* Rain latest hour (hover to see other rain measurements)
** Current wind speed in m/s (hover to see current wind gust speed)